Time;durP1;ratioP1;P1;durP2;ratioP2;P2;SDS_P1;SDS_P2;PMS_P1;PMS_P2;Temp;Humidity;BMP_temperature;BMP_pressure;BME280_temperature;BME280_humidity;BME280_pressure;Samples;Min_cycle;Max_cycle;Signal;HPM_P1;HPM_P2
2023/10/06 00:01:21;;;;;;;9.40;3.97;;;;;12.70;102005.00;;;;5031341;28;20223;-71
2023/10/06 00:04:08;;;;;;;9.03;4.23;;;;;12.70;101999.00;;;;5025578;28;20353;-72
2023/10/06 00:06:54;;;;;;;14.77;4.30;;;;;12.70;102001.00;;;;5026341;28;20822;-74
2023/10/06 00:09:44;;;;;;;6.17;4.07;;;;;12.70;102001.00;;;;5023148;28;20225;-73
2023/10/06 00:12:31;;;;;;;9.97;4.30;;;;;12.70;102002.00;;;;5024711;28;20733;-74
2023/10/06 00:15:24;;;;;;;10.20;4.40;;;;;12.60;102005.00;;;;5021886;28;20626;-75
2023/10/06 00:18:16;;;;;;;7.70;3.67;;;;;12.60;102005.00;;;;5028036;28;20230;-74
2023/10/06 00:21:05;;;;;;;9.03;4.10;;;;;12.60;102011.00;;;;5025863;28;20237;-75
2023/10/06 00:23:55;;;;;;;7.63;4.10;;;;;12.50;102013.00;;;;5024122;28;20257;-76
2023/10/06 00:26:43;;;;;;;8.83;4.17;;;;;12.50;102015.00;;;;5029864;28;20233;-74
2023/10/06 00:29:29;;;;;;;6.93;3.93;;;;;12.50;102014.00;;;;5038569;28;20332;-75
2023/10/06 00:32:26;;;;;;;8.10;4.03;;;;;12.50;102008.00;;;;5033563;28;20241;-74
2023/10/06 00:35:15;;;;;;;9.57;4.37;;;;;12.50;102011.00;;;;5033111;28;20291;-76
2023/10/06 00:38:12;;;;;;;7.63;4.47;;;;;12.50;101998.00;;;;5018419;28;20249;-76
2023/10/06 00:41:06;;;;;;;11.63;4.93;;;;;12.40;101998.00;;;;5024354;28;20236;-75
2023/10/06 00:43:55;;;;;;;7.23;4.70;;;;;12.50;101995.00;;;;5024071;28;20302;-77
2023/10/06 00:46:43;;;;;;;9.60;3.87;;;;;12.50;101990.00;;;;5018094;28;20759;-75
2023/10/06 00:49:30;;;;;;;11.53;4.50;;;;;12.50;101988.00;;;;5019140;28;20709;-76
2023/10/06 00:52:16;;;;;;;10.13;4.90;;;;;12.40;101997.00;;;;5021815;28;20327;-76
2023/10/06 00:55:05;;;;;;;9.17;4.67;;;;;12.40;101996.00;;;;5034589;28;20317;-76
2023/10/06 00:57:53;;;;;;;8.37;4.13;;;;;12.40;101995.00;;;;5039995;28;20236;-76
2023/10/06 01:00:42;;;;;;;8.73;4.30;;;;;12.40;101995.00;;;;5042932;28;20369;-74
2023/10/06 01:03:28;;;;;;;8.80;4.27;;;;;12.30;101988.00;;;;5045721;28;20261;-74
2023/10/06 01:06:17;;;;;;;8.57;4.07;;;;;12.30;101985.00;;;;5040620;28;20256;-77
2023/10/06 01:09:14;;;;;;;9.90;4.67;;;;;12.30;101969.00;;;;5044143;28;20232;-76
2023/10/06 01:12:05;;;;;;;9.67;4.70;;;;;12.20;101974.00;;;;5036766;28;20254;-76
2023/10/06 01:15:05;;;;;;;10.37;5.17;;;;;12.20;101968.00;;;;5037718;28;20280;-74
2023/10/06 01:17:55;;;;;;;11.37;4.70;;;;;12.20;101967.00;;;;5038254;28;20785;-77
2023/10/06 01:20:43;;;;;;;8.93;4.20;;;;;12.20;101955.00;;;;5025602;28;20252;-75
2023/10/06 01:23:33;;;;;;;8.13;4.67;;;;;12.20;101948.00;;;;5016196;28;20719;-75
2023/10/06 01:26:24;;;;;;;11.17;4.87;;;;;12.20;101940.00;;;;5026740;28;20304;-73
2023/10/06 01:29:13;;;;;;;13.73;4.90;;;;;12.20;101951.00;;;;5023695;28;20241;-73
2023/10/06 01:32:04;;;;;;;10.20;5.07;;;;;12.20;101944.00;;;;5023208;28;20233;-75
2023/10/06 01:34:51;;;;;;;9.93;4.80;;;;;12.20;101956.00;;;;5027965;28;20248;-74
2023/10/06 01:37:38;;;;;;;9.37;4.73;;;;;12.20;101943.00;;;;5032573;28;20722;-74
2023/10/06 01:40:43;;;;;;;8.50;4.60;;;;;12.20;101951.00;;;;5026645;28;20369;-72
2023/10/06 01:43:29;;;;;;;7.33;4.43;;;;;12.20;101953.00;;;;5019561;28;20245;-75
2023/10/06 01:46:16;;;;;;;10.03;4.87;;;;;12.20;101944.00;;;;5023450;28;20731;-75
2023/10/06 01:49:03;;;;;;;11.27;4.90;;;;;12.20;101935.00;;;;5023196;28;20229;-75
2023/10/06 01:51:50;;;;;;;10.57;4.90;;;;;12.20;101935.00;;;;5021086;28;20279;-75
2023/10/06 01:54:58;;;;;;;11.73;5.20;;;;;12.10;101933.00;;;;5017909;28;20226;-75
2023/10/06 01:57:47;;;;;;;12.57;5.50;;;;;12.20;101931.00;;;;5020634;28;20311;-74
2023/10/06 02:00:35;;;;;;;11.30;5.13;;;;;12.20;101927.00;;;;5015575;28;20241;-75
2023/10/06 02:03:23;;;;;;;13.20;5.20;;;;;12.10;101918.00;;;;5020468;28;20234;-77
2023/10/06 02:06:16;;;;;;;17.73;5.10;;;;;12.10;101919.00;;;;5022550;28;20738;-75
2023/10/06 02:09:05;;;;;;;9.30;5.07;;;;;12.10;101919.00;;;;5026062;28;20608;-75
2023/10/06 02:11:55;;;;;;;10.87;5.47;;;;;12.10;101915.00;;;;5020638;28;20234;-75
2023/10/06 02:14:42;;;;;;;8.73;4.77;;;;;12.10;101926.00;;;;5019737;28;20264;-73
2023/10/06 02:17:30;;;;;;;11.70;4.87;;;;;12.10;101920.00;;;;5024242;28;20921;-77
2023/10/06 02:20:29;;;;;;;11.27;4.60;;;;;12.10;101908.00;;;;5025870;28;20703;-70
2023/10/06 02:23:15;;;;;;;8.60;4.77;;;;;12.00;101914.00;;;;5019551;28;20240;-74
2023/10/06 02:26:02;;;;;;;9.57;5.27;;;;;12.00;101919.00;;;;5022400;28;20229;-73
2023/10/06 02:28:53;;;;;;;11.23;4.60;;;;;12.00;101908.00;;;;5023950;28;20228;-73
2023/10/06 02:31:42;;;;;;;9.40;4.90;;;;;11.90;101909.00;;;;5018749;28;20236;-76
2023/10/06 02:34:35;;;;;;;9.10;4.80;;;;;11.90;101916.00;;;;5029984;28;20691;-75
2023/10/06 02:37:25;;;;;;;8.53;5.07;;;;;11.90;101922.00;;;;5025926;28;20590;-73
2023/10/06 02:40:12;;;;;;;7.97;4.80;;;;;11.90;101926.00;;;;5015406;28;20280;-77
2023/10/06 02:43:00;;;;;;;11.03;5.10;;;;;11.90;101922.00;;;;5021799;28;20319;-74
2023/10/06 02:45:46;;;;;;;9.40;4.80;;;;;11.90;101926.00;;;;5018182;28;21068;-74
2023/10/06 02:48:34;;;;;;;11.60;4.97;;;;;11.90;101922.00;;;;5024625;28;20228;-74
2023/10/06 02:51:28;;;;;;;14.43;5.13;;;;;11.90;101923.00;;;;5031556;28;20236;-73
2023/10/06 02:54:21;;;;;;;9.93;4.80;;;;;11.90;101915.00;;;;5027580;28;20232;-74
2023/10/06 02:57:10;;;;;;;10.10;4.67;;;;;11.90;101915.00;;;;5024572;28;20244;-73
2023/10/06 03:00:17;;;;;;;10.63;4.80;;;;;11.90;101916.00;;;;5018991;28;20260;-74
2023/10/06 03:03:12;;;;;;;11.40;5.10;;;;;11.90;101917.00;;;;5019435;28;20226;-74
2023/10/06 03:06:07;;;;;;;9.00;5.10;;;;;11.90;101907.00;;;;5019775;28;20817;-75
2023/10/06 03:08:54;;;;;;;10.57;5.27;;;;;11.90;101911.00;;;;5019141;28;20288;-72
2023/10/06 03:11:41;;;;;;;10.83;5.40;;;;;11.90;101911.00;;;;5012509;28;20233;-76
2023/10/06 03:14:38;;;;;;;10.63;5.63;;;;;11.90;101914.00;;;;5013763;28;20735;-74
2023/10/06 03:17:26;;;;;;;12.37;5.47;;;;;11.90;101910.00;;;;5017659;28;20221;-75
2023/10/06 03:20:18;;;;;;;9.70;5.03;;;;;11.90;101910.00;;;;5019845;28;20261;-74
2023/10/06 03:23:14;;;;;;;12.20;5.43;;;;;11.90;101912.00;;;;5018412;28;20276;-75
2023/10/06 03:26:03;;;;;;;13.03;5.43;;;;;11.90;101914.00;;;;5013534;28;20229;-75
2023/10/06 03:28:50;;;;;;;8.93;5.03;;;;;11.90;101908.00;;;;5016133;28;20811;-74
2023/10/06 03:31:44;;;;;;;10.20;5.20;;;;;11.90;101911.00;;;;5006972;28;20367;-73
2023/10/06 03:34:31;;;;;;;9.67;4.70;;;;;11.90;101915.00;;;;5030703;28;20603;-75
2023/10/06 03:37:34;;;;;;;11.47;4.93;;;;;11.90;101910.00;;;;5029993;28;20236;-76
2023/10/06 03:40:25;;;;;;;10.47;5.43;;;;;11.90;101907.00;;;;5021476;28;21118;-74
2023/10/06 03:43:12;;;;;;;14.43;5.80;;;;;11.80;101907.00;;;;5014459;28;20233;-74
2023/10/06 03:45:59;;;;;;;9.27;4.40;;;;;11.80;101904.00;;;;5029190;28;20237;-73
2023/10/06 03:48:48;;;;;;;6.77;4.93;;;;;11.80;101921.00;;;;5013645;28;20777;-76
2023/10/06 03:51:37;;;;;;;8.43;4.87;;;;;11.80;101915.00;;;;5021906;28;20229;-74
2023/10/06 03:54:24;;;;;;;9.47;5.60;;;;;11.80;101910.00;;;;5019109;28;20237;-74
2023/10/06 03:57:15;;;;;;;8.10;5.10;;;;;11.70;101905.00;;;;5018317;28;20233;-74
2023/10/06 04:00:04;;;;;;;9.93;5.57;;;;;11.70;101904.00;;;;5016852;28;20694;-73
2023/10/06 04:02:51;;;;;;;9.10;5.10;;;;;11.70;101902.00;;;;5019476;28;20287;-72
2023/10/06 04:05:38;;;;;;;11.67;5.20;;;;;11.70;101906.00;;;;5020516;28;20737;-74
2023/10/06 04:08:24;;;;;;;10.53;5.13;;;;;11.70;101904.00;;;;5018327;28;20233;-74
2023/10/06 04:11:13;;;;;;;11.93;5.73;;;;;11.70;101904.00;;;;5017490;28;20225;-73
2023/10/06 04:14:01;;;;;;;10.63;5.57;;;;;11.70;101895.00;;;;5015803;28;20579;-74
2023/10/06 04:16:50;;;;;;;11.17;4.73;;;;;11.70;101887.00;;;;5008677;28;20360;-76
2023/10/06 04:19:36;;;;;;;10.30;5.00;;;;;11.70;101883.00;;;;5014667;28;20234;-75
2023/10/06 04:22:23;;;;;;;9.07;5.27;;;;;11.80;101871.00;;;;5021893;28;20299;-69
2023/10/06 04:25:11;;;;;;;9.60;5.30;;;;;11.70;101857.00;;;;5022962;28;20237;-75
2023/10/06 04:27:57;;;;;;;11.40;5.00;;;;;11.70;101850.00;;;;5013154;28;20364;-72
2023/10/06 04:30:46;;;;;;;8.70;4.80;;;;;11.70;101850.00;;;;5020682;28;21070;-75
2023/10/06 04:33:33;;;;;;;10.53;5.20;;;;;11.80;101842.00;;;;5024825;28;20284;-75
2023/10/06 04:36:20;;;;;;;9.23;5.50;;;;;11.70;101847.00;;;;5019797;28;20233;-75
2023/10/06 04:39:10;;;;;;;10.20;4.70;;;;;11.70;101843.00;;;;5022600;28;20229;-73
2023/10/06 04:41:59;;;;;;;9.57;5.40;;;;;11.80;101838.00;;;;5020223;28;20876;-75
2023/10/06 04:44:48;;;;;;;10.57;4.70;;;;;11.80;101829.00;;;;5022847;28;20237;-75
2023/10/06 04:47:40;;;;;;;11.90;5.20;;;;;11.70;101835.00;;;;5023678;28;21024;-77
2023/10/06 04:50:26;;;;;;;12.50;5.63;;;;;11.80;101835.00;;;;5016468;28;20712;-73
2023/10/06 04:53:12;;;;;;;8.60;5.00;;;;;11.80;101843.00;;;;5024398;28;20228;-75
2023/10/06 04:55:59;;;;;;;9.77;5.63;;;;;11.80;101849.00;;;;5027409;28;20237;-76
2023/10/06 04:58:45;;;;;;;11.17;5.33;;;;;11.80;101851.00;;;;5030919;28;20233;-77
2023/10/06 05:01:31;;;;;;;12.53;5.00;;;;;11.90;101839.00;;;;5019388;28;20353;-76
2023/10/06 05:04:19;;;;;;;11.90;5.30;;;;;11.80;101835.00;;;;5024320;28;20246;-74
2023/10/06 05:07:06;;;;;;;14.07;5.50;;;;;11.80;101832.00;;;;5018726;28;20229;-76
2023/10/06 05:09:55;;;;;;;8.87;4.80;;;;;11.80;101832.00;;;;5022913;28;20299;-76
2023/10/06 05:12:42;;;;;;;12.57;5.43;;;;;11.80;101830.00;;;;5022926;28;20226;-77
2023/10/06 05:15:30;;;;;;;11.63;5.23;;;;;11.80;101832.00;;;;5019881;28;20229;-74
2023/10/06 05:18:16;;;;;;;10.07;5.20;;;;;11.80;101827.00;;;;5027780;28;20268;-74
2023/10/06 05:21:06;;;;;;;12.73;5.43;;;;;11.90;101837.00;;;;5020900;28;20688;-73
2023/10/06 05:23:53;;;;;;;8.93;4.93;;;;;11.90;101838.00;;;;5021477;28;20609;-71
2023/10/06 05:26:43;;;;;;;11.57;5.90;;;;;11.90;101841.00;;;;5026001;28;20237;-70
2023/10/06 05:29:29;;;;;;;13.80;5.50;;;;;11.90;101836.00;;;;5026283;28;20238;-75
2023/10/06 05:32:15;;;;;;;8.23;4.90;;;;;11.90;101839.00;;;;5020056;28;20237;-75
2023/10/06 05:35:03;;;;;;;11.37;5.20;;;;;11.90;101836.00;;;;5016952;28;20337;-76
2023/10/06 05:37:51;;;;;;;9.53;5.37;;;;;11.80;101831.00;;;;5019820;28;20229;-74
2023/10/06 05:40:37;;;;;;;13.30;5.13;;;;;11.80;101841.00;;;;5023011;28;20224;-75
2023/10/06 05:43:28;;;;;;;10.10;5.17;;;;;11.90;101849.00;;;;5022865;28;20236;-73
2023/10/06 05:46:14;;;;;;;11.53;5.27;;;;;11.90;101833.00;;;;5017789;28;20229;-74
2023/10/06 05:49:03;;;;;;;12.97;5.40;;;;;12.00;101835.00;;;;5020028;28;20225;-75
2023/10/06 05:51:50;;;;;;;13.17;5.77;;;;;12.10;101850.00;;;;5021845;28;20253;-74
2023/10/06 05:54:38;;;;;;;11.33;5.93;;;;;12.20;101858.00;;;;5019368;28;20329;-75
2023/10/06 05:57:26;;;;;;;13.83;5.73;;;;;12.20;101852.00;;;;5018940;28;20242;-73
2023/10/06 06:00:18;;;;;;;12.70;6.40;;;;;12.30;101857.00;;;;5023405;28;20353;-74
2023/10/06 06:03:10;;;;;;;13.87;5.63;;;;;12.30;101848.00;;;;5019584;28;20225;-73
2023/10/06 06:05:57;;;;;;;14.50;5.60;;;;;12.40;101848.00;;;;5014900;28;20221;-76
2023/10/06 06:08:47;;;;;;;13.20;5.70;;;;;12.40;101850.00;;;;5014213;28;20237;-76
2023/10/06 06:11:35;;;;;;;19.60;5.83;;;;;12.50;101857.00;;;;5025564;28;20320;-74
2023/10/06 06:14:22;;;;;;;13.17;5.77;;;;;12.50;101848.00;;;;5011427;28;20284;-74
2023/10/06 06:17:08;;;;;;;14.03;5.90;;;;;12.60;101847.00;;;;5015604;28;20227;-74
2023/10/06 06:19:56;;;;;;;9.33;5.60;;;;;12.70;101846.00;;;;5025153;28;20838;-74
2023/10/06 06:22:59;;;;;;;12.63;5.53;;;;;12.70;101856.00;;;;5013975;28;20241;-75
2023/10/06 06:25:45;;;;;;;11.73;5.17;;;;;12.80;101843.00;;;;5013167;28;21317;-75
2023/10/06 06:28:33;;;;;;;12.50;5.40;;;;;12.80;101839.00;;;;5022537;28;20235;-76
2023/10/06 06:31:20;;;;;;;13.03;5.27;;;;;12.90;101841.00;;;;5020747;28;20245;-76
2023/10/06 06:34:06;;;;;;;8.47;5.00;;;;;13.00;101858.00;;;;5032806;28;20241;-74
2023/10/06 06:36:53;;;;;;;11.20;4.90;;;;;13.00;101857.00;;;;5027039;28;20964;-75
2023/10/06 06:39:44;;;;;;;8.63;4.67;;;;;13.00;101856.00;;;;5026114;28;20816;-74
2023/10/06 06:42:30;;;;;;;12.50;4.97;;;;;13.10;101870.00;;;;5014478;28;20744;-75
2023/10/06 06:45:18;;;;;;;14.53;5.20;;;;;13.20;101870.00;;;;5019813;28;20248;-73
2023/10/06 06:48:09;;;;;;;14.40;4.80;;;;;13.20;101870.00;;;;5026204;28;20237;-75
2023/10/06 06:50:56;;;;;;;9.93;5.13;;;;;13.30;101872.00;;;;5029823;28;20368;-74
2023/10/06 06:53:42;;;;;;;10.77;5.00;;;;;13.40;101858.00;;;;5017461;28;20240;-75
2023/10/06 06:56:29;;;;;;;14.47;5.03;;;;;13.40;101849.00;;;;5024054;28;20234;-75
2023/10/06 06:59:17;;;;;;;10.73;4.80;;;;;13.50;101842.00;;;;5027492;28;20242;-73
2023/10/06 07:02:05;;;;;;;11.53;4.17;;;;;13.50;101854.00;;;;5025971;28;20288;-73
2023/10/06 07:04:52;;;;;;;8.90;4.63;;;;;13.60;101841.00;;;;5019616;28;20727;-73
2023/10/06 07:07:39;;;;;;;15.37;4.80;;;;;13.70;101850.00;;;;5024142;28;20241;-74
2023/10/06 07:10:25;;;;;;;11.23;4.20;;;;;13.80;101841.00;;;;5023975;28;20229;-75
2023/10/06 07:13:12;;;;;;;8.27;4.33;;;;;13.80;101841.00;;;;5018414;28;20229;-75
2023/10/06 07:15:59;;;;;;;8.90;4.77;;;;;13.80;101830.00;;;;5024651;28;20290;-73
2023/10/06 07:18:47;;;;;;;6.80;4.00;;;;;13.80;101842.00;;;;5024333;28;20387;-74
2023/10/06 07:21:34;;;;;;;12.17;4.77;;;;;13.90;101843.00;;;;5024553;28;20287;-77
2023/10/06 07:24:20;;;;;;;10.70;4.53;;;;;13.90;101847.00;;;;5019526;28;20624;-73
2023/10/06 07:27:08;;;;;;;7.20;4.17;;;;;14.00;101843.00;;;;5017207;28;20220;-70
2023/10/06 07:29:54;;;;;;;10.97;4.33;;;;;14.10;101841.00;;;;5020609;28;20986;-75
2023/10/06 07:32:42;;;;;;;10.10;4.40;;;;;14.00;101843.00;;;;5019880;28;20222;-72
2023/10/06 07:35:36;;;;;;;7.20;4.23;;;;;14.10;101841.00;;;;5012015;28;20351;-72
2023/10/06 07:38:24;;;;;;;10.13;4.40;;;;;14.20;101851.00;;;;5026011;28;20233;-76
2023/10/06 07:41:17;;;;;;;10.73;4.40;;;;;14.20;101859.00;;;;5016467;28;20303;-71
2023/10/06 07:44:05;;;;;;;9.00;4.20;;;;;14.30;101843.00;;;;5021443;28;20237;-73
2023/10/06 07:46:52;;;;;;;7.40;3.97;;;;;14.40;101852.00;;;;5018489;28;20235;-72
2023/10/06 07:49:40;;;;;;;9.87;4.53;;;;;14.40;101857.00;;;;5021508;28;20229;-75
2023/10/06 07:52:27;;;;;;;11.47;3.87;;;;;14.40;101864.00;;;;5022190;28;20236;-77
2023/10/06 07:55:15;;;;;;;14.13;4.30;;;;;14.50;101871.00;;;;5022902;28;20299;-74
2023/10/06 07:58:05;;;;;;;9.27;4.10;;;;;14.50;101857.00;;;;5019503;28;20271;-72
2023/10/06 08:00:53;;;;;;;8.90;3.87;;;;;14.40;101862.00;;;;5019256;28;20599;-74
2023/10/06 08:03:41;;;;;;;8.43;3.70;;;;;14.40;101871.00;;;;5021556;28;20640;-75
2023/10/06 08:06:27;;;;;;;9.63;4.17;;;;;14.40;101872.00;;;;5022374;28;20297;-73
2023/10/06 08:09:17;;;;;;;11.53;3.60;;;;;14.40;101870.00;;;;5019193;28;20307;-74
2023/10/06 08:12:08;;;;;;;9.87;4.83;;;;;14.40;101864.00;;;;5021735;28;20229;-72
2023/10/06 08:14:55;;;;;;;10.30;4.30;;;;;14.40;101870.00;;;;5022804;28;20323;-77
2023/10/06 08:17:41;;;;;;;7.53;3.57;;;;;14.60;101869.00;;;;5021162;28;20617;-73
2023/10/06 08:20:29;;;;;;;9.63;4.13;;;;;14.70;101873.00;;;;5023268;28;20712;-73
2023/10/06 08:23:16;;;;;;;9.33;3.70;;;;;14.90;101880.00;;;;5026780;28;20726;-74
2023/10/06 08:26:08;;;;;;;8.23;4.47;;;;;15.00;101881.00;;;;5019995;28;20250;-74
2023/10/06 08:28:55;;;;;;;14.60;4.20;;;;;15.00;101884.00;;;;5020866;28;20241;-75
2023/10/06 08:31:42;;;;;;;8.63;3.90;;;;;15.20;101891.00;;;;5017399;28;20266;-69
2023/10/06 08:34:30;;;;;;;6.63;4.03;;;;;15.20;101883.00;;;;5027198;28;20714;-76
2023/10/06 08:37:17;;;;;;;9.67;4.00;;;;;15.20;101882.00;;;;5029545;28;20683;-74
2023/10/06 08:40:07;;;;;;;9.10;3.67;;;;;15.30;101876.00;;;;5027281;28;20612;-73
2023/10/06 08:42:57;;;;;;;11.53;4.10;;;;;15.30;101863.00;;;;5027299;28;20248;-75
2023/10/06 08:45:46;;;;;;;8.97;4.10;;;;;15.50;101884.00;;;;5019258;28;20288;-73
2023/10/06 08:48:38;;;;;;;6.77;3.90;;;;;15.60;101870.00;;;;5027509;28;20235;-73
2023/10/06 08:51:28;;;;;;;7.07;3.47;;;;;15.70;101864.00;;;;5021734;28;20634;-73
2023/10/06 08:54:15;;;;;;;13.70;3.87;;;;;15.80;101870.00;;;;5017124;28;20928;-73
2023/10/06 08:57:03;;;;;;;7.07;3.80;;;;;15.90;101859.00;;;;5011240;28;20233;-74
2023/10/06 08:59:50;;;;;;;12.40;3.77;;;;;15.90;101874.00;;;;5028826;28;20316;-73
2023/10/06 09:02:37;;;;;;;13.03;3.70;;;;;16.00;101872.00;;;;5027145;28;20280;-73
2023/10/06 09:05:23;;;;;;;7.97;3.53;;;;;16.10;101864.00;;;;5028045;28;20713;-74
2023/10/06 09:08:10;;;;;;;7.83;3.90;;;;;16.20;101869.00;;;;5021344;28;20709;-73
2023/10/06 09:10:57;;;;;;;8.00;3.80;;;;;16.30;101860.00;;;;5022735;28;20242;-73
2023/10/06 09:13:43;;;;;;;10.23;3.27;;;;;16.30;101856.00;;;;5027430;28;20279;-72
2023/10/06 09:16:48;;;;;;;8.03;3.40;;;;;16.50;101850.00;;;;5022127;28;20272;-73
2023/10/06 09:19:49;;;;;;;7.43;3.47;;;;;16.50;101845.00;;;;5022440;28;20253;-73
2023/10/06 09:22:46;;;;;;;8.87;3.40;;;;;16.60;101842.00;;;;5020004;28;20442;-73
2023/10/06 09:25:43;;;;;;;9.20;3.27;;;;;16.80;101847.00;;;;5026355;28;20237;-72
2023/10/06 09:28:51;;;;;;;6.73;3.40;;;;;17.00;101860.00;;;;5020291;28;20238;-73
2023/10/06 09:31:44;;;;;;;6.60;3.30;;;;;17.10;101863.00;;;;5019229;28;20268;-72
2023/10/06 09:34:32;;;;;;;8.10;3.40;;;;;17.20;101847.00;;;;5025174;28;20263;-73
2023/10/06 09:37:19;;;;;;;7.07;3.00;;;;;17.20;101843.00;;;;5030178;28;20365;-73
2023/10/06 09:40:20;;;;;;;12.27;3.37;;;;;17.50;101840.00;;;;5021959;28;20268;-73
2023/10/06 09:43:08;;;;;;;7.83;3.00;;;;;17.50;101838.00;;;;5023733;28;20233;-70
2023/10/06 09:45:57;;;;;;;8.97;2.80;;;;;17.40;101833.00;;;;5024039;28;20979;-72
2023/10/06 09:48:45;;;;;;;11.53;2.90;;;;;17.60;101833.00;;;;5016989;28;20300;-70
2023/10/06 09:51:33;;;;;;;9.10;3.13;;;;;17.60;101842.00;;;;5022091;28;20378;-74
2023/10/06 09:54:21;;;;;;;8.73;2.90;;;;;17.60;101832.00;;;;5026083;28;20880;-74
2023/10/06 09:57:10;;;;;;;6.53;2.87;;;;;17.80;101837.00;;;;5024942;28;20985;-74
2023/10/06 09:59:57;;;;;;;6.57;3.20;;;;;17.90;101838.00;;;;5021565;28;20238;-74
2023/10/06 10:02:45;;;;;;;6.47;2.80;;;;;17.90;101838.00;;;;5026677;28;20224;-72
2023/10/06 10:05:33;;;;;;;6.13;2.87;;;;;17.80;101837.00;;;;5019836;28;20241;-71
2023/10/06 10:08:22;;;;;;;6.67;3.00;;;;;17.70;101835.00;;;;5012176;28;20653;-73
2023/10/06 10:11:14;;;;;;;6.60;2.83;;;;;17.60;101826.00;;;;5024367;28;20749;-73
2023/10/06 10:14:20;;;;;;;5.93;2.80;;;;;17.70;101839.00;;;;5023385;28;20227;-73
2023/10/06 10:17:18;;;;;;;7.73;2.50;;;;;17.80;101833.00;;;;5015492;28;21105;-72
2023/10/06 10:20:09;;;;;;;4.70;2.50;;;;;17.80;101829.00;;;;5023661;28;20729;-73
2023/10/06 10:22:59;;;;;;;7.47;2.77;;;;;17.70;101834.00;;;;5020619;28;20234;-72
2023/10/06 10:25:45;;;;;;;5.47;2.57;;;;;17.60;101826.00;;;;5019412;28;20272;-72
2023/10/06 10:28:32;;;;;;;10.97;2.83;;;;;17.80;101811.00;;;;5013402;28;20229;-75
2023/10/06 10:31:20;;;;;;;8.60;2.77;;;;;18.00;101813.00;;;;5023646;28;20300;-72
2023/10/06 10:34:06;;;;;;;8.37;2.70;;;;;18.30;101825.00;;;;5022309;28;20224;-78
2023/10/06 10:37:16;;;;;;;9.73;2.60;;;;;18.60;101815.00;;;;5027125;28;20268;-74
2023/10/06 10:40:12;;;;;;;5.27;2.40;;;;;18.80;101824.00;;;;5022825;28;20288;-72
2023/10/06 10:43:05;;;;;;;7.37;2.77;;;;;18.90;101814.00;;;;5025066;28;20232;-76
2023/10/06 10:45:53;;;;;;;8.37;2.60;;;;;19.10;101832.00;;;;5016805;28;20769;-73
2023/10/06 10:48:47;;;;;;;6.10;2.80;;;;;19.30;101818.00;;;;5021122;28;20242;-73
2023/10/06 10:51:49;;;;;;;5.70;2.83;;;;;19.30;101815.00;;;;5025159;28;20582;-69
2023/10/06 10:54:39;;;;;;;9.57;2.90;;;;;19.30;101798.00;;;;5015474;28;20226;-71
2023/10/06 10:57:26;;;;;;;8.77;3.00;;;;;19.30;101794.00;;;;5012513;28;20242;-75
2023/10/06 11:00:13;;;;;;;7.50;2.80;;;;;19.40;101795.00;;;;5015813;28;20236;-74
2023/10/06 11:03:04;;;;;;;7.63;2.90;;;;;19.50;101785.00;;;;5016740;28;20300;-75
2023/10/06 11:05:56;;;;;;;5.13;2.47;;;;;19.50;101791.00;;;;5019530;28;20875;-73
2023/10/06 11:08:42;;;;;;;11.20;2.77;;;;;19.40;101801.00;;;;5011680;28;20226;-76
2023/10/06 11:11:30;;;;;;;7.43;2.53;;;;;19.30;101789.00;;;;5017185;28;20244;-74
2023/10/06 11:14:18;;;;;;;9.13;2.93;;;;;19.40;101790.00;;;;5022386;28;20234;-73
2023/10/06 11:17:05;;;;;;;6.60;3.03;;;;;19.40;101793.00;;;;5021997;28;20614;-74
2023/10/06 11:20:01;;;;;;;9.73;2.60;;;;;19.40;101787.00;;;;5011579;28;20669;-72
2023/10/06 11:22:55;;;;;;;5.97;2.80;;;;;19.30;101789.00;;;;5020082;28;20297;-72
2023/10/06 11:25:48;;;;;;;6.77;2.93;;;;;19.20;101785.00;;;;5021659;28;20292;-72
2023/10/06 11:28:41;;;;;;;10.00;2.93;;;;;19.10;101793.00;;;;5019541;28;20807;-74
2023/10/06 11:31:30;;;;;;;5.97;2.40;;;;;19.30;101796.00;;;;5019308;28;20238;-73
2023/10/06 11:34:16;;;;;;;8.00;2.87;;;;;19.40;101789.00;;;;5026989;28;20292;-73
2023/10/06 11:37:05;;;;;;;6.87;2.90;;;;;19.40;101784.00;;;;5019024;28;20233;-72
2023/10/06 11:39:52;;;;;;;5.13;2.87;;;;;19.30;101775.00;;;;5013370;28;20227;-72
2023/10/06 11:42:41;;;;;;;6.27;3.00;;;;;19.30;101772.00;;;;5020511;28;20370;-72
2023/10/06 11:45:30;;;;;;;5.07;2.70;;;;;19.40;101773.00;;;;5021812;28;20247;-72
2023/10/06 11:48:29;;;;;;;6.77;2.90;;;;;19.60;101776.00;;;;5021429;28;20740;-73
2023/10/06 11:51:16;;;;;;;6.97;3.00;;;;;20.00;101760.00;;;;5029406;28;20240;-70
2023/10/06 11:54:03;;;;;;;6.93;3.00;;;;;20.20;101761.00;;;;5020824;28;20223;-73
2023/10/06 11:56:50;;;;;;;10.10;2.90;;;;;20.40;101758.00;;;;5023458;28;20282;-74
2023/10/06 11:59:36;;;;;;;7.77;3.03;;;;;20.50;101745.00;;;;5023601;28;21012;-74
2023/10/06 12:02:24;;;;;;;6.47;3.03;;;;;20.40;101729.00;;;;5019426;28;20302;-72
2023/10/06 12:05:13;;;;;;;8.57;2.97;;;;;20.60;101736.00;;;;5021316;28;20243;-73
2023/10/06 12:08:03;;;;;;;7.33;3.03;;;;;20.60;101743.00;;;;5020223;28;20237;-74
2023/10/06 12:10:51;;;;;;;7.10;2.60;;;;;20.60;101753.00;;;;5016966;28;20234;-74
2023/10/06 12:13:37;;;;;;;8.47;3.20;;;;;20.50;101738.00;;;;5017581;28;20228;-71
2023/10/06 12:16:24;;;;;;;5.80;2.93;;;;;20.40;101730.00;;;;5023062;28;20242;-76
2023/10/06 12:19:11;;;;;;;6.77;2.63;;;;;20.40;101729.00;;;;5012174;28;20240;-77
2023/10/06 12:21:59;;;;;;;6.50;3.40;;;;;20.50;101727.00;;;;5020281;28;20240;-73
2023/10/06 12:24:46;;;;;;;6.80;2.90;;;;;20.70;101733.00;;;;5018877;28;20524;-74
2023/10/06 12:27:32;;;;;;;11.40;3.20;;;;;20.70;101729.00;;;;5019057;28;20227;-70
2023/10/06 12:30:21;;;;;;;8.17;3.07;;;;;20.90;101726.00;;;;5023209;28;20270;-72
2023/10/06 12:33:10;;;;;;;8.27;3.00;;;;;21.20;101724.00;;;;5023992;28;20252;-75
2023/10/06 12:35:57;;;;;;;7.23;2.83;;;;;21.50;101711.00;;;;5024760;28;20261;-71
2023/10/06 12:38:45;;;;;;;7.60;3.27;;;;;21.70;101727.00;;;;5014315;28;21431;-73
2023/10/06 12:41:31;;;;;;;6.33;2.93;;;;;21.90;101717.00;;;;5021360;28;20282;-76
2023/10/06 12:44:22;;;;;;;5.50;2.80;;;;;21.60;101717.00;;;;5020729;28;20233;-76
2023/10/06 12:47:11;;;;;;;7.47;3.00;;;;;21.50;101716.00;;;;5018054;28;20234;-73
2023/10/06 12:50:05;;;;;;;10.07;3.20;;;;;21.40;101716.00;;;;5018075;28;20226;-75
2023/10/06 12:52:52;;;;;;;10.43;2.93;;;;;21.40;101712.00;;;;5014983;28;20257;-74
2023/10/06 12:55:42;;;;;;;9.13;3.27;;;;;21.10;101721.00;;;;5017060;28;20249;-75
2023/10/06 12:58:29;;;;;;;5.37;3.10;;;;;21.10;101703.00;;;;5021424;28;20292;-75
2023/10/06 13:01:15;;;;;;;8.83;3.00;;;;;21.40;101696.00;;;;5020590;28;20229;-75
2023/10/06 13:04:02;;;;;;;4.70;2.80;;;;;21.30;101714.00;;;;5022496;28;20237;-76
2023/10/06 13:06:48;;;;;;;5.93;3.00;;;;;21.40;101706.00;;;;5019636;28;20236;-75
2023/10/06 13:09:36;;;;;;;7.40;2.73;;;;;21.40;101703.00;;;;5023185;28;20305;-74
2023/10/06 13:12:27;;;;;;;8.83;2.73;;;;;21.50;101697.00;;;;5021800;28;20240;-75
2023/10/06 13:15:17;;;;;;;4.07;2.50;;;;;21.40;101676.00;;;;5020511;28;20245;-72
2023/10/06 13:18:07;;;;;;;6.57;2.67;;;;;21.10;101708.00;;;;5021887;28;20237;-74
2023/10/06 13:20:54;;;;;;;6.20;2.43;;;;;21.00;101693.00;;;;5020588;28;20233;-76
2023/10/06 13:23:42;;;;;;;5.23;2.50;;;;;20.90;101687.00;;;;5024546;28;20228;-72
2023/10/06 13:26:28;;;;;;;7.37;2.33;;;;;20.90;101692.00;;;;5018805;28;20594;-75
2023/10/06 13:29:30;;;;;;;4.27;2.73;;;;;20.90;101692.00;;;;5017391;28;20691;-74
2023/10/06 13:32:17;;;;;;;6.37;2.23;;;;;21.00;101689.00;;;;5020681;28;20363;-72
2023/10/06 13:35:11;;;;;;;4.80;2.40;;;;;21.00;101694.00;;;;5021877;28;20618;-75
2023/10/06 13:37:58;;;;;;;3.57;2.17;;;;;21.10;101690.00;;;;5020255;28;20229;-77
2023/10/06 13:40:44;;;;;;;4.43;2.10;;;;;21.10;101686.00;;;;5019190;28;20275;-74
2023/10/06 13:43:31;;;;;;;4.90;2.40;;;;;21.10;101690.00;;;;5024363;28;20229;-73
2023/10/06 13:46:20;;;;;;;7.07;2.70;;;;;21.20;101677.00;;;;5026056;28;20252;-74
2023/10/06 13:49:06;;;;;;;6.20;2.53;;;;;21.10;101681.00;;;;5025419;28;20241;-76
2023/10/06 13:51:53;;;;;;;7.07;2.40;;;;;21.00;101678.00;;;;5018475;28;20750;-75